Time;durP1;ratioP1;P1;durP2;ratioP2;P2;SDS_P1;SDS_P2;PMS_P1;PMS_P2;Temp;Humidity;BMP_temperature;BMP_pressure;BME280_temperature;BME280_humidity;BME280_pressure;Samples;Min_cycle;Max_cycle;Signal;HPM_P1;HPM_P2
2023/04/06 00:00:59;;;;;;;15.07;7.47;;;3.50;99.90;;;;;;5028178;28;20361;-64
2023/04/06 00:03:25;;;;;;;10.23;7.30;;;3.40;99.90;;;;;;5009927;28;20087;-65
2023/04/06 00:05:51;;;;;;;10.85;7.70;;;3.40;99.90;;;;;;5007611;28;20049;-65
2023/04/06 00:08:17;;;;;;;12.60;8.23;;;3.30;99.90;;;;;;5017006;28;20049;-66
2023/04/06 00:10:42;;;;;;;12.63;7.55;;;3.30;99.90;;;;;;5002137;28;20037;-64
2023/04/06 00:13:08;;;;;;;10.80;8.55;;;3.20;99.90;;;;;;5014347;28;20490;-65
2023/04/06 00:15:34;;;;;;;12.38;9.20;;;3.10;99.90;;;;;;5004374;28;20174;-64
2023/04/06 00:18:00;;;;;;;12.77;10.20;;;3.10;99.90;;;;;;5022135;28;20041;-64
2023/04/06 00:20:26;;;;;;;14.70;10.18;;;3.10;99.90;;;;;;4994362;28;20072;-65
2023/04/06 00:22:52;;;;;;;15.32;9.98;;;3.10;99.90;;;;;;5008224;28;20754;-66
2023/04/06 00:25:17;;;;;;;15.95;11.07;;;3.10;99.90;;;;;;4981326;28;20037;-64
2023/04/06 00:27:43;;;;;;;14.60;10.07;;;3.10;99.90;;;;;;5009626;28;20040;-65
2023/04/06 00:30:10;;;;;;;15.30;9.25;;;3.10;99.90;;;;;;5008172;28;20083;-64
2023/04/06 00:32:36;;;;;;;13.40;9.77;;;3.10;99.90;;;;;;5012504;28;20140;-62
2023/04/06 00:35:05;;;;;;;11.43;8.52;;;3.10;99.90;;;;;;5016408;28;20036;-64
2023/04/06 00:37:32;;;;;;;11.57;8.90;;;3.00;99.90;;;;;;5018455;28;20711;-63
2023/04/06 00:39:58;;;;;;;11.15;8.27;;;3.00;99.90;;;;;;5017937;28;20076;-63
2023/04/06 00:42:27;;;;;;;11.18;8.57;;;3.00;99.90;;;;;;5018119;28;20311;-63
2023/04/06 00:44:58;;;;;;;11.65;8.52;;;3.00;99.90;;;;;;5011368;28;20045;-64
2023/04/06 00:47:25;;;;;;;9.88;8.32;;;3.00;99.90;;;;;;5019121;28;20190;-64
2023/04/06 00:49:52;;;;;;;11.43;8.63;;;2.90;99.90;;;;;;5016839;28;20050;-65
2023/04/06 00:52:17;;;;;;;11.65;8.27;;;2.90;99.90;;;;;;5015934;28;20666;-65
2023/04/06 00:54:44;;;;;;;12.68;8.38;;;2.90;99.90;;;;;;5030065;28;20033;-64
2023/04/06 00:57:12;;;;;;;12.65;8.70;;;2.90;99.90;;;;;;5016897;28;20060;-66
2023/04/06 00:59:38;;;;;;;11.98;8.20;;;2.90;99.90;;;;;;5027627;28;20068;-64
2023/04/06 01:02:04;;;;;;;11.30;7.75;;;2.90;99.90;;;;;;5016959;28;20128;-65
2023/04/06 01:04:30;;;;;;;12.82;8.52;;;3.00;99.90;;;;;;5018235;28;20130;-65
2023/04/06 01:06:56;;;;;;;12.55;8.43;;;2.90;99.90;;;;;;5016959;28;20051;-65
2023/04/06 01:09:22;;;;;;;11.07;7.43;;;3.00;99.90;;;;;;5016564;28;20041;-65
2023/04/06 01:11:48;;;;;;;10.43;7.78;;;2.90;99.90;;;;;;5016173;28;20038;-64
2023/04/06 01:14:14;;;;;;;10.95;8.02;;;3.00;99.90;;;;;;5015975;28;20848;-65
2023/04/06 01:16:40;;;;;;;15.20;8.43;;;3.00;99.90;;;;;;5014367;28;20129;-66
2023/04/06 01:19:11;;;;;;;10.65;7.80;;;3.00;99.90;;;;;;5015014;28;20124;-65
2023/04/06 01:21:37;;;;;;;11.27;8.48;;;3.10;99.90;;;;;;5016158;28;20049;-65
2023/04/06 01:24:04;;;;;;;10.23;7.78;;;2.90;99.90;;;;;;5003947;28;20037;-65
2023/04/06 01:26:30;;;;;;;10.85;7.88;;;2.90;99.90;;;;;;5014996;28;20081;-65
2023/04/06 01:28:56;;;;;;;14.02;8.25;;;2.90;99.90;;;;;;4998197;28;20052;-65
2023/04/06 01:31:22;;;;;;;9.50;7.50;;;2.90;99.90;;;;;;5001557;28;20052;-64
2023/04/06 01:33:48;;;;;;;10.32;7.90;;;2.90;99.90;;;;;;5020025;28;20366;-64
2023/04/06 01:36:14;;;;;;;11.10;7.88;;;2.90;99.90;;;;;;5015092;28;20699;-65
2023/04/06 01:38:41;;;;;;;10.98;8.07;;;2.90;99.90;;;;;;5033690;28;20049;-65
2023/04/06 01:41:07;;;;;;;11.32;7.78;;;2.90;99.90;;;;;;5018443;28;20073;-64
2023/04/06 01:43:33;;;;;;;11.63;8.57;;;3.00;99.90;;;;;;5018483;28;20541;-65
2023/04/06 01:46:00;;;;;;;10.65;7.97;;;2.90;99.90;;;;;;5014342;28;20085;-63
2023/04/06 01:48:27;;;;;;;10.70;7.78;;;2.90;99.90;;;;;;5015748;28;20277;-63
2023/04/06 01:50:53;;;;;;;11.13;7.35;;;2.80;99.90;;;;;;5016295;28;20705;-64
2023/04/06 01:53:19;;;;;;;12.43;8.23;;;2.70;99.90;;;;;;5009866;28;20735;-63
2023/04/06 01:55:45;;;;;;;9.77;7.57;;;2.70;99.90;;;;;;5034273;28;20052;-64
2023/04/06 01:58:11;;;;;;;10.82;7.70;;;2.60;99.90;;;;;;5018189;28;20048;-64
2023/04/06 02:00:37;;;;;;;11.88;8.13;;;2.60;99.90;;;;;;5017796;28;20042;-64
2023/04/06 02:03:02;;;;;;;10.35;7.65;;;2.60;99.90;;;;;;5026042;28;20041;-64
2023/04/06 02:05:30;;;;;;;11.15;8.35;;;2.60;99.90;;;;;;5013885;28;20045;-65
2023/04/06 02:07:56;;;;;;;11.88;7.93;;;2.60;99.90;;;;;;5013827;28;20308;-64
2023/04/06 02:10:22;;;;;;;11.60;8.10;;;2.60;99.90;;;;;;5015318;28;20122;-64
2023/04/06 02:12:48;;;;;;;11.70;7.20;;;2.60;99.90;;;;;;5015097;28;20041;-63
2023/04/06 02:15:14;;;;;;;11.63;7.47;;;2.70;99.90;;;;;;5019666;28;20064;-66
2023/04/06 02:17:41;;;;;;;9.75;7.05;;;2.70;99.90;;;;;;5015755;28;20042;-65
2023/04/06 02:20:07;;;;;;;10.15;6.93;;;2.70;99.90;;;;;;5000744;28;20092;-65
2023/04/06 02:22:34;;;;;;;11.70;7.90;;;2.70;99.90;;;;;;5013877;28;20039;-65
2023/04/06 02:25:00;;;;;;;14.73;9.23;;;2.80;99.90;;;;;;5021917;28;20045;-64
2023/04/06 02:27:26;;;;;;;14.65;9.32;;;3.00;99.90;;;;;;5014687;28;20036;-65
2023/04/06 02:29:51;;;;;;;14.48;8.75;;;3.00;99.90;;;;;;5015569;28;20068;-65
2023/04/06 02:32:17;;;;;;;18.42;10.75;;;3.10;99.90;;;;;;5005585;28;20274;-65
2023/04/06 02:34:43;;;;;;;18.48;11.10;;;3.10;99.90;;;;;;5015395;28;20296;-65
2023/04/06 02:37:08;;;;;;;18.17;10.02;;;3.30;99.90;;;;;;5007819;28;20038;-65
2023/04/06 02:39:34;;;;;;;21.05;12.02;;;3.30;99.90;;;;;;5015792;28;20175;-65
2023/04/06 02:42:00;;;;;;;22.55;12.48;;;3.40;99.90;;;;;;4997591;28;20049;-65
2023/04/06 02:44:26;;;;;;;24.75;13.55;;;3.40;99.90;;;;;;5001578;28;20037;-65
2023/04/06 02:46:51;;;;;;;22.17;13.15;;;3.30;99.90;;;;;;5015423;28;20415;-65
2023/04/06 02:49:17;;;;;;;23.60;13.80;;;3.30;99.90;;;;;;5016519;28;20183;-65
2023/04/06 02:51:43;;;;;;;26.23;14.57;;;3.20;99.90;;;;;;5003090;28;20236;-66
2023/04/06 02:54:08;;;;;;;21.23;12.73;;;3.10;99.90;;;;;;5018846;28;20049;-66
2023/04/06 02:56:35;;;;;;;20.63;12.60;;;3.10;99.90;;;;;;5024800;28;20666;-64
2023/04/06 02:59:00;;;;;;;24.08;12.48;;;3.10;99.90;;;;;;5024175;28;20047;-65
2023/04/06 03:01:27;;;;;;;24.08;13.55;;;3.00;99.90;;;;;;5017411;28;20470;-64
2023/04/06 03:03:53;;;;;;;18.13;11.82;;;3.00;99.90;;;;;;5018089;28;20064;-64
2023/04/06 03:06:19;;;;;;;16.83;11.38;;;2.90;99.90;;;;;;5043892;28;20136;-65
2023/04/06 03:08:45;;;;;;;19.35;11.48;;;2.90;99.90;;;;;;5006170;28;20049;-64
2023/04/06 03:11:12;;;;;;;17.42;11.20;;;2.80;99.90;;;;;;5019272;28;20036;-64
2023/04/06 03:13:40;;;;;;;17.83;11.80;;;2.80;99.90;;;;;;5018077;28;20069;-64
2023/04/06 03:16:06;;;;;;;15.23;11.40;;;2.70;99.90;;;;;;5023101;28;20052;-64
2023/04/06 03:18:33;;;;;;;15.13;10.57;;;2.60;99.90;;;;;;5009844;28;20494;-65
2023/04/06 03:21:00;;;;;;;14.63;10.15;;;2.50;99.90;;;;;;5008891;28;20095;-64
2023/04/06 03:23:26;;;;;;;14.65;9.80;;;2.40;99.90;;;;;;5036248;28;20053;-66
2023/04/06 03:25:52;;;;;;;16.63;9.75;;;2.40;99.90;;;;;;5031564;28;20036;-65
2023/04/06 03:28:17;;;;;;;18.52;11.35;;;2.40;99.90;;;;;;5020620;28;20067;-65
2023/04/06 03:30:43;;;;;;;13.88;9.90;;;2.40;99.90;;;;;;5019262;28;20790;-65
2023/04/06 03:33:09;;;;;;;16.15;10.40;;;2.40;99.90;;;;;;5025914;28;20123;-65
2023/04/06 03:35:36;;;;;;;14.18;10.70;;;2.20;99.90;;;;;;5007230;28;20231;-66
2023/04/06 03:38:02;;;;;;;18.00;10.38;;;2.20;99.90;;;;;;5019088;28;20072;-63
2023/04/06 03:40:31;;;;;;;14.73;10.73;;;2.30;99.90;;;;;;5019395;28;20044;-64
2023/04/06 03:42:57;;;;;;;18.00;10.88;;;2.30;99.90;;;;;;5011048;28;20406;-65
2023/04/06 03:45:23;;;;;;;21.38;13.52;;;2.40;99.90;;;;;;5015836;28;20048;-65
2023/04/06 03:47:48;;;;;;;26.58;14.18;;;2.50;99.90;;;;;;5022462;28;20041;-64
2023/04/06 03:50:14;;;;;;;27.40;15.13;;;2.60;99.90;;;;;;5016040;28;20541;-64
2023/04/06 03:52:40;;;;;;;23.55;13.63;;;2.60;99.90;;;;;;5017347;28;20111;-64
2023/04/06 03:55:07;;;;;;;27.23;15.40;;;2.60;99.90;;;;;;4998732;28;20179;-64
2023/04/06 03:57:33;;;;;;;28.05;15.65;;;2.60;99.90;;;;;;5015682;28;20051;-64
2023/04/06 03:59:58;;;;;;;26.45;16.08;;;2.60;99.90;;;;;;5015993;28;20041;-65
2023/04/06 04:02:24;;;;;;;29.40;16.58;;;2.60;99.90;;;;;;5010329;28;20080;-64
2023/04/06 04:04:50;;;;;;;33.08;16.65;;;2.50;99.90;;;;;;5014794;28;20136;-65
2023/04/06 04:07:16;;;;;;;37.38;18.45;;;2.50;99.90;;;;;;5015768;28;20036;-64
2023/04/06 04:09:41;;;;;;;26.73;15.15;;;2.50;99.90;;;;;;5020752;28;20087;-65
2023/04/06 04:12:07;;;;;;;22.10;10.57;;;2.50;99.90;;;;;;5001735;28;20111;-65
2023/04/06 04:14:33;;;;;;;15.48;9.80;;;2.50;99.90;;;;;;5017077;28;20478;-63
2023/04/06 04:16:59;;;;;;;15.70;11.75;;;2.50;99.90;;;;;;5016057;28;20232;-64
2023/04/06 04:19:24;;;;;;;14.38;11.88;;;2.50;99.90;;;;;;5040767;28;20060;-66
2023/04/06 04:21:50;;;;;;;16.08;11.60;;;2.50;99.90;;;;;;5027814;28;20045;-64
2023/04/06 04:24:16;;;;;;;14.55;11.23;;;2.50;99.90;;;;;;5017540;28;20302;-64
2023/04/06 04:26:42;;;;;;;18.38;11.35;;;2.40;99.90;;;;;;5010985;28;20037;-65
2023/04/06 04:29:07;;;;;;;15.63;11.38;;;2.30;99.90;;;;;;5009971;28;20056;-64
2023/04/06 04:31:33;;;;;;;14.68;9.05;;;2.30;99.90;;;;;;5015995;28;20141;-65
2023/04/06 04:34:00;;;;;;;13.13;9.88;;;2.30;99.90;;;;;;5015650;28;20072;-65
2023/04/06 04:36:26;;;;;;;15.73;10.13;;;2.40;99.90;;;;;;5016041;28;20048;-64
2023/04/06 04:38:55;;;;;;;13.48;9.48;;;2.40;99.90;;;;;;5017203;28;20381;-65
2023/04/06 04:41:20;;;;;;;12.50;10.02;;;2.30;99.90;;;;;;5016006;28;20669;-65
2023/04/06 04:43:46;;;;;;;17.88;12.43;;;2.30;99.90;;;;;;5017198;28;20045;-64
2023/04/06 04:46:12;;;;;;;15.63;11.30;;;2.40;99.90;;;;;;5015280;28;20061;-66
2023/04/06 04:48:37;;;;;;;12.52;11.20;;;2.30;99.90;;;;;;5014638;28;20559;-65
2023/04/06 04:51:05;;;;;;;17.08;12.63;;;2.30;99.90;;;;;;5000727;28;20045;-65
2023/04/06 04:53:30;;;;;;;16.60;12.57;;;2.30;99.90;;;;;;5026239;28;20360;-64
2023/04/06 04:55:56;;;;;;;19.45;13.57;;;2.30;99.90;;;;;;5014514;28;20983;-65
2023/04/06 04:58:22;;;;;;;13.43;11.18;;;2.30;99.90;;;;;;5022011;28;20037;-65
2023/04/06 05:00:47;;;;;;;17.98;12.32;;;2.30;99.90;;;;;;5002004;28;20047;-64
2023/04/06 05:03:23;;;;;;;17.42;13.18;;;2.30;99.90;;;;;;5009978;28;20047;-63
2023/04/06 05:05:49;;;;;;;19.85;14.27;;;2.20;99.90;;;;;;5015983;28;20032;-65
2023/04/06 05:08:15;;;;;;;23.50;14.38;;;2.20;99.90;;;;;;5006211;28;20037;-63
2023/04/06 05:10:41;;;;;;;18.63;13.65;;;2.10;99.90;;;;;;5015950;28;20321;-65
2023/04/06 05:13:07;;;;;;;25.42;15.13;;;2.10;99.90;;;;;;5013949;28;20314;-64
2023/04/06 05:15:38;;;;;;;23.90;15.43;;;2.00;99.90;;;;;;5008757;28;20802;-64
2023/04/06 05:18:07;;;;;;;23.90;16.30;;;2.00;99.90;;;;;;5017275;28;20141;-64
2023/04/06 05:20:34;;;;;;;24.92;16.15;;;1.90;99.90;;;;;;5017201;28;20469;-64
2023/04/06 05:23:00;;;;;;;26.05;15.45;;;1.80;99.90;;;;;;5015675;28;20114;-65
2023/04/06 05:25:26;;;;;;;23.65;16.33;;;1.80;99.90;;;;;;5001365;28;20827;-65
2023/04/06 05:27:52;;;;;;;22.70;15.57;;;1.80;99.90;;;;;;5014467;28;20080;-64
2023/04/06 05:30:18;;;;;;;20.90;14.80;;;1.70;99.90;;;;;;5026935;28;20149;-65
2023/04/06 05:32:44;;;;;;;18.88;14.50;;;1.70;99.90;;;;;;5023123;28;20116;-65
2023/04/06 05:35:11;;;;;;;20.77;12.95;;;1.70;99.90;;;;;;5016190;28;20128;-65
2023/04/06 05:37:37;;;;;;;17.27;12.95;;;1.80;99.90;;;;;;5006675;28;20649;-66
2023/04/06 05:40:03;;;;;;;21.27;15.60;;;1.90;99.90;;;;;;5014999;28;20045;-65
2023/04/06 05:42:42;;;;;;;21.80;14.68;;;1.90;99.90;;;;;;4999208;28;20135;-65
2023/04/06 05:45:10;;;;;;;20.08;14.00;;;2.00;99.90;;;;;;5014581;28;20045;-64
2023/04/06 05:47:36;;;;;;;19.92;14.30;;;2.10;99.90;;;;;;5019344;28;20049;-65
2023/04/06 05:50:02;;;;;;;16.98;12.95;;;2.20;99.90;;;;;;5017385;28;20499;-65
2023/04/06 05:52:28;;;;;;;21.25;14.75;;;2.30;99.90;;;;;;5014611;28;20037;-65
2023/04/06 05:54:54;;;;;;;20.05;13.10;;;2.40;99.90;;;;;;5014569;28;20455;-66
2023/04/06 05:57:20;;;;;;;16.90;12.95;;;2.60;99.90;;;;;;5002325;28;20543;-64
2023/04/06 05:59:45;;;;;;;19.90;12.85;;;2.90;99.90;;;;;;5013354;28;20267;-63
2023/04/06 06:02:11;;;;;;;17.08;12.85;;;3.20;99.90;;;;;;5026655;28;20124;-64
2023/04/06 06:04:37;;;;;;;18.20;12.77;;;3.50;99.90;;;;;;5017131;28;20055;-64
2023/04/06 06:07:03;;;;;;;15.70;12.35;;;3.80;99.90;;;;;;5001023;28;20045;-65
2023/04/06 06:09:29;;;;;;;16.98;11.88;;;4.00;99.90;;;;;;5014569;28;20450;-64
2023/04/06 06:11:55;;;;;;;15.77;11.23;;;4.20;99.90;;;;;;5013579;28;20041;-64
2023/04/06 06:14:21;;;;;;;16.45;11.25;;;4.30;99.90;;;;;;5012694;28;20069;-64
2023/04/06 06:16:47;;;;;;;16.63;11.07;;;4.30;99.90;;;;;;5013099;28;20457;-66
2023/04/06 06:19:13;;;;;;;14.98;10.98;;;4.50;99.90;;;;;;5010218;28;20093;-64
2023/04/06 06:21:39;;;;;;;14.65;10.68;;;4.60;99.90;;;;;;5014130;28;20090;-64
2023/04/06 06:24:06;;;;;;;15.02;11.07;;;4.80;99.90;;;;;;5021924;28;20129;-64
2023/04/06 06:26:32;;;;;;;15.50;11.05;;;4.90;99.90;;;;;;5017798;28;20029;-65
2023/04/06 06:28:57;;;;;;;17.58;11.15;;;5.20;99.90;;;;;;5013339;28;20395;-65
2023/04/06 06:31:24;;;;;;;13.40;9.18;;;5.40;99.90;;;;;;5003112;28;20041;-65
2023/04/06 06:33:51;;;;;;;14.98;9.98;;;5.50;99.90;;;;;;5019709;28;20076;-64
2023/04/06 06:36:20;;;;;;;14.55;9.63;;;5.70;99.10;;;;;;5019605;28;20132;-64
2023/04/06 06:38:45;;;;;;;11.80;8.18;;;5.90;82.00;;;;;;5030439;28;20033;-64
2023/04/06 06:41:11;;;;;;;14.13;8.80;;;6.20;83.90;;;;;;5018859;28;20095;-64
2023/04/06 06:43:37;;;;;;;14.80;10.88;;;6.40;49.50;;;;;;5019185;28;20376;-63
2023/04/06 06:46:03;;;;;;;14.32;10.50;;;6.50;7.10;;;;;;5014196;28;20051;-64
2023/04/06 06:48:29;;;;;;;14.15;9.00;;;6.40;1.00;;;;;;5019507;28;20081;-64
2023/04/06 06:50:55;;;;;;;13.77;9.63;;;6.40;1.00;;;;;;5019198;28;20140;-64
2023/04/06 06:53:21;;;;;;;12.77;9.52;;;6.30;1.00;;;;;;5007029;28;20106;-64
2023/04/06 06:55:48;;;;;;;15.77;10.43;;;6.30;1.00;;;;;;5016636;28;20041;-64
2023/04/06 06:58:14;;;;;;;11.55;9.60;;;6.30;1.00;;;;;;5022315;28;20143;-64
2023/04/06 07:00:40;;;;;;;14.05;9.25;;;6.60;1.00;;;;;;5013120;28;20334;-66
2023/04/06 07:03:06;;;;;;;14.75;9.68;;;6.90;1.00;;;;;;5016980;28;20041;-64
2023/04/06 07:05:32;;;;;;;13.38;8.82;;;7.00;1.00;;;;;;5014046;28;20053;-66
2023/04/06 07:07:58;;;;;;;10.90;8.20;;;7.40;1.00;;;;;;5018840;28;20737;-66
2023/04/06 07:10:24;;;;;;;10.35;7.00;;;7.60;1.00;;;;;;5018506;28;20119;-65
2023/04/06 07:12:50;;;;;;;11.07;6.90;;;7.80;99.90;;;;;;5030883;28;20043;-64
2023/04/06 07:15:16;;;;;;;10.50;6.95;;;7.70;99.90;;;;;;5019489;28;20049;-64
2023/04/06 07:17:44;;;;;;;8.55;6.55;;;7.80;99.90;;;;;;5019608;28;20045;-65
2023/04/06 07:20:11;;;;;;;10.15;6.70;;;7.70;99.90;;;;;;5017720;28;20099;-64
2023/04/06 07:22:38;;;;;;;10.07;6.80;;;7.80;99.90;;;;;;5016576;28;20403;-64
2023/04/06 07:25:04;;;;;;;9.63;6.53;;;7.80;99.90;;;;;;5016031;28;20443;-65
2023/04/06 07:27:30;;;;;;;12.00;6.53;;;7.80;99.90;;;;;;5018992;28;20051;-65
2023/04/06 07:29:56;;;;;;;15.25;8.52;;;7.90;99.90;;;;;;5014935;28;20613;-64
2023/04/06 07:32:21;;;;;;;10.80;6.90;;;8.00;99.90;;;;;;5013422;28;20095;-64
2023/04/06 07:34:47;;;;;;;10.25;6.68;;;8.20;99.90;;;;;;5038816;28;20055;-65
2023/04/06 07:37:13;;;;;;;7.72;5.85;;;8.30;99.90;;;;;;5014850;28;20486;-65
2023/04/06 07:39:40;;;;;;;10.55;7.05;;;8.50;99.90;;;;;;5018750;28;20471;-64
2023/04/06 07:42:06;;;;;;;10.82;6.97;;;8.60;99.90;;;;;;5012675;28;20819;-65
2023/04/06 07:44:31;;;;;;;9.73;7.03;;;8.70;99.90;;;;;;5016952;28;20041;-66
2023/04/06 07:46:57;;;;;;;9.50;6.75;;;8.90;99.90;;;;;;5014778;28;20116;-65
2023/04/06 07:49:23;;;;;;;11.68;7.50;;;9.00;99.90;;;;;;5017802;28;20216;-65
2023/04/06 07:51:49;;;;;;;10.30;6.45;;;9.00;99.90;;;;;;5015861;28;20041;-64
2023/04/06 07:54:15;;;;;;;10.80;6.47;;;9.00;99.90;;;;;;5025050;28;20037;-65
2023/04/06 07:56:41;;;;;;;10.88;6.32;;;9.30;99.90;;;;;;4997725;28;20758;-65
2023/04/06 07:59:07;;;;;;;9.20;6.32;;;9.60;99.90;;;;;;5005486;28;20037;-66
2023/04/06 08:01:32;;;;;;;9.10;7.00;;;9.80;99.90;;;;;;5005625;28;20438;-65
2023/04/06 08:03:58;;;;;;;9.82;6.50;;;10.00;99.90;;;;;;5017373;28;20053;-65
2023/04/06 08:06:25;;;;;;;9.48;6.28;;;10.20;99.90;;;;;;5017145;28;20041;-65
2023/04/06 08:08:50;;;;;;;6.82;6.10;;;10.20;99.90;;;;;;5019640;28;20052;-66
2023/04/06 08:11:16;;;;;;;10.43;6.50;;;10.30;99.90;;;;;;5015270;28;20243;-66
2023/04/06 08:13:42;;;;;;;6.78;6.00;;;10.40;99.90;;;;;;5023978;28;20085;-66
2023/04/06 08:16:08;;;;;;;6.85;6.22;;;10.60;99.90;;;;;;5004775;28;20053;-65
2023/04/06 08:18:33;;;;;;;8.82;6.72;;;10.60;99.90;;;;;;5019950;28;20208;-66
2023/04/06 08:20:59;;;;;;;7.63;6.35;;;10.80;99.90;;;;;;5016738;28;20365;-65
2023/04/06 08:23:25;;;;;;;8.98;6.57;;;10.90;99.90;;;;;;5019063;28;20578;-66
2023/04/06 08:25:54;;;;;;;7.43;6.40;;;10.90;99.90;;;;;;5016477;28;20045;-65
2023/04/06 08:28:20;;;;;;;8.38;6.57;;;11.00;99.90;;;;;;5012478;28;20056;-65
2023/04/06 08:30:46;;;;;;;7.93;6.07;;;11.10;99.90;;;;;;5011790;28;20427;-67
2023/04/06 08:33:11;;;;;;;9.80;6.55;;;11.20;99.90;;;;;;5015214;28;20581;-65
2023/04/06 08:35:37;;;;;;;7.97;6.30;;;11.40;99.90;;;;;;5015069;28;20273;-65
2023/04/06 08:38:03;;;;;;;7.75;6.80;;;11.50;99.90;;;;;;5016310;28;20056;-65
2023/04/06 08:40:29;;;;;;;8.45;6.43;;;11.40;99.90;;;;;;5016674;28;20122;-65
2023/04/06 08:42:58;;;;;;;9.38;6.47;;;11.50;99.90;;;;;;5016451;28;20041;-66
2023/04/06 08:45:23;;;;;;;8.30;6.57;;;11.50;99.90;;;;;;5012359;28;20049;-67
2023/04/06 08:47:52;;;;;;;7.28;5.80;;;11.70;99.90;;;;;;5010945;28;20126;-64
2023/04/06 08:50:18;;;;;;;6.63;5.60;;;11.70;99.90;;;;;;5020698;28;20056;-65
2023/04/06 08:52:46;;;;;;;7.43;5.70;;;11.70;99.90;;;;;;5004363;28;20044;-65
2023/04/06 08:55:12;;;;;;;7.90;6.45;;;11.80;99.90;;;;;;5020872;28;20140;-66
2023/04/06 08:57:38;;;;;;;7.63;6.15;;;11.90;99.90;;;;;;5014925;28;20043;-65
2023/04/06 09:00:05;;;;;;;5.53;5.03;;;11.90;99.90;;;;;;5016467;28;20037;-65
2023/04/06 09:02:32;;;;;;;7.72;6.90;;;12.00;99.90;;;;;;5011059;28;20057;-64
2023/04/06 09:05:00;;;;;;;7.43;6.38;;;11.60;99.90;;;;;;5015327;28;20363;-66
2023/04/06 09:07:27;;;;;;;8.43;6.55;;;11.50;99.90;;;;;;5020131;28;20127;-64
2023/04/06 09:09:52;;;;;;;8.43;6.30;;;11.80;99.90;;;;;;5012099;28;20047;-65
2023/04/06 09:12:26;;;;;;;8.07;6.60;;;12.20;99.90;;;;;;5015084;28;20037;-65
2023/04/06 09:14:52;;;;;;;7.55;6.78;;;12.70;99.90;;;;;;5015489;28;20418;-66
2023/04/06 09:17:23;;;;;;;7.35;6.60;;;12.70;99.90;;;;;;5016079;28;20103;-66
2023/04/06 09:19:49;;;;;;;8.00;7.20;;;12.70;99.90;;;;;;5015015;28;20191;-64
2023/04/06 09:22:15;;;;;;;7.55;6.40;;;12.50;99.90;;;;;;5016660;28;20487;-65
2023/04/06 09:24:51;;;;;;;6.53;5.72;;;12.40;99.90;;;;;;5017743;28;20038;-65
2023/04/06 09:27:17;;;;;;;8.48;7.10;;;12.80;99.90;;;;;;5014882;28;20048;-64
2023/04/06 09:29:44;;;;;;;7.85;6.10;;;12.70;99.90;;;;;;5000016;28;20037;-65
2023/04/06 09:32:11;;;;;;;8.93;6.30;;;12.70;99.90;;;;;;4998976;28;21002;-64
2023/04/06 09:34:38;;;;;;;7.43;5.75;;;12.80;99.90;;;;;;5012901;28;20069;-65
2023/04/06 09:37:18;;;;;;;8.55;6.88;;;12.90;99.90;;;;;;5017838;28;20067;-65
2023/04/06 09:39:45;;;;;;;7.80;6.38;;;13.20;99.90;;;;;;5024971;28;20119;-64
2023/04/06 09:42:24;;;;;;;7.68;6.40;;;13.60;99.90;;;;;;5011014;28;20053;-64
2023/04/06 09:44:50;;;;;;;8.50;6.65;;;14.00;99.90;;;;;;5021589;28;20045;-63
2023/04/06 09:47:17;;;;;;;6.35;5.75;;;14.10;99.90;;;;;;5026602;28;20604;-63
2023/04/06 09:49:44;;;;;;;7.68;6.35;;;14.20;99.90;;;;;;5038329;28;20265;-63
2023/04/06 09:52:12;;;;;;;7.53;6.65;;;14.20;99.90;;;;;;5022411;28;20142;-64
2023/04/06 09:54:38;;;;;;;6.93;5.80;;;13.80;99.90;;;;;;5017623;28;20037;-64
2023/04/06 09:57:13;;;;;;;5.53;4.70;;;13.90;99.90;;;;;;5019080;28;20353;-64
2023/04/06 10:00:11;;;;;;;8.35;7.00;;;14.00;99.90;;;;;;5021871;28;20045;-63
2023/04/06 10:03:08;;;;;;;6.95;6.28;;;13.80;99.90;;;;;;5022093;28;20053;-66
2023/04/06 10:05:37;;;;;;;8.52;7.15;;;14.20;99.90;;;;;;5013619;28;20124;-65
2023/04/06 10:08:11;;;;;;;9.93;6.22;;;14.20;99.90;;;;;;5024290;28;20299;-65
2023/04/06 10:10:37;;;;;;;7.15;6.45;;;14.70;99.90;;;;;;5031962;28;20410;-64
2023/04/06 10:13:04;;;;;;;7.07;6.15;;;15.10;99.90;;;;;;5023448;28;20141;-64
2023/04/06 10:15:30;;;;;;;7.88;6.97;;;15.10;99.90;;;;;;5013282;28;20053;-65
2023/04/06 10:17:58;;;;;;;7.88;6.95;;;15.60;99.90;;;;;;5020630;28;20034;-63
2023/04/06 10:20:51;;;;;;;8.45;6.80;;;15.60;99.90;;;;;;5017410;28;20321;-64
2023/04/06 10:23:26;;;;;;;8.85;6.38;;;16.00;99.90;;;;;;5004676;28;20044;-64
2023/04/06 10:26:02;;;;;;;9.63;6.80;;;15.50;93.20;;;;;;5043056;28;20112;-63
2023/04/06 10:28:34;;;;;;;9.35;7.13;;;15.00;82.00;;;;;;5042851;28;20048;-63
2023/04/06 10:31:02;;;;;;;8.57;7.47;;;14.30;73.20;;;;;;5043967;28;20048;-64
2023/04/06 10:33:28;;;;;;;9.70;8.10;;;13.90;71.80;;;;;;5022685;28;20068;-63
2023/04/06 10:35:55;;;;;;;9.15;8.18;;;13.40;68.10;;;;;;5021590;28;20064;-63
2023/04/06 10:38:32;;;;;;;10.15;8.13;;;13.40;73.40;;;;;;5023786;28;20499;-63
2023/04/06 10:41:05;;;;;;;11.00;7.70;;;13.10;67.50;;;;;;5028784;28;20120;-65
2023/04/06 10:43:35;;;;;;;10.48;8.60;;;12.80;66.40;;;;;;5024215;28;20045;-63
2023/04/06 10:46:01;;;;;;;10.77;8.20;;;12.80;73.90;;;;;;5017393;28;20415;-63
2023/04/06 10:48:37;;;;;;;11.25;9.07;;;12.70;75.20;;;;;;5023185;28;20505;-65
2023/04/06 10:51:14;;;;;;;9.25;8.25;;;12.80;71.70;;;;;;5041008;28;20272;-62
2023/04/06 10:53:48;;;;;;;9.93;8.90;;;12.80;72.80;;;;;;5013124;28;20041;-63
2023/04/06 10:56:21;;;;;;;14.75;9.15;;;12.90;71.50;;;;;;5034231;28;20071;-65
2023/04/06 10:58:48;;;;;;;9.85;8.25;;;13.10;79.70;;;;;;5024439;28;20486;-63
2023/04/06 11:01:16;;;;;;;10.98;8.48;;;13.40;80.50;;;;;;5002906;28;20041;-63
2023/04/06 11:03:46;;;;;;;14.10;9.65;;;13.40;79.30;;;;;;5029799;28;20099;-64
2023/04/06 11:06:22;;;;;;;13.00;10.48;;;13.30;74.70;;;;;;5030150;28;20049;-64
2023/04/06 11:08:47;;;;;;;12.35;9.88;;;13.20;73.00;;;;;;5004721;28;20053;-64
2023/04/06 11:11:18;;;;;;;15.55;10.40;;;13.20;72.40;;;;;;5022526;28;20482;-65
2023/04/06 11:13:57;;;;;;;12.85;10.55;;;13.30;76.50;;;;;;5015349;28;20366;-64
2023/04/06 11:16:33;;;;;;;12.48;10.10;;;13.40;77.70;;;;;;5021393;28;20044;-65
2023/04/06 11:19:08;;;;;;;12.63;10.90;;;13.40;76.30;;;;;;5032628;28;20041;-63
2023/04/06 11:21:46;;;;;;;17.95;11.48;;;13.20;71.70;;;;;;5038320;28;20126;-64
2023/04/06 11:24:15;;;;;;;14.40;11.80;;;13.10;69.50;;;;;;5019802;28;20128;-64
2023/04/06 11:26:45;;;;;;;14.48;12.40;;;12.80;69.50;;;;;;5030108;28;20041;-64
2023/04/06 11:29:19;;;;;;;17.10;12.45;;;13.00;75.60;;;;;;5023370;28;20041;-66
2023/04/06 11:31:47;;;;;;;18.45;12.45;;;13.20;78.50;;;;;;5017620;28;20553;-64
2023/04/06 11:34:18;;;;;;;18.92;12.95;;;13.30;79.10;;;;;;5016875;28;20123;-65
2023/04/06 11:36:45;;;;;;;14.15;12.23;;;13.30;78.40;;;;;;5016903;28;20408;-63
2023/04/06 11:39:12;;;;;;;17.02;13.30;;;13.40;79.20;;;;;;5016190;28;20789;-64
2023/04/06 11:41:38;;;;;;;15.93;12.23;;;13.30;76.60;;;;;;5008284;28;20053;-64
2023/04/06 11:44:05;;;;;;;16.52;12.90;;;13.20;76.60;;;;;;5017162;28;20655;-64
2023/04/06 11:46:31;;;;;;;16.98;13.10;;;13.30;79.60;;;;;;5022893;28;20056;-64
2023/04/06 11:49:01;;;;;;;14.82;12.75;;;13.40;78.70;;;;;;5029170;28;20046;-64
2023/04/06 11:51:27;;;;;;;16.05;12.75;;;13.60;79.60;;;;;;5018387;28;20038;-64
2023/04/06 11:53:54;;;;;;;18.52;13.63;;;13.70;81.40;;;;;;5017710;28;20285;-64
2023/04/06 11:56:30;;;;;;;19.65;14.07;;;13.80;78.00;;;;;;5021825;28;20124;-64
2023/04/06 11:58:59;;;;;;;18.75;15.02;;;13.90;78.80;;;;;;5007813;28;20045;-66
2023/04/06 12:01:26;;;;;;;18.75;14.32;;;13.90;79.20;;;;;;5016355;28;20045;-65
2023/04/06 12:03:52;;;;;;;18.50;14.95;;;13.90;76.70;;;;;;5017842;28;20554;-64
2023/04/06 12:06:18;;;;;;;18.98;14.63;;;13.80;69.80;;;;;;5027731;28;20499;-64
2023/04/06 12:08:44;;;;;;;19.85;15.13;;;13.80;70.70;;;;;;5007907;28;20583;-64
2023/04/06 12:11:11;;;;;;;18.92;14.50;;;13.80;71.50;;;;;;5016121;28;20045;-65
2023/04/06 12:13:37;;;;;;;17.90;13.98;;;14.10;76.30;;;;;;5006011;28;20112;-66
2023/04/06 12:16:03;;;;;;;17.45;14.07;;;14.20;75.60;;;;;;5036054;28;20049;-66
2023/04/06 12:18:29;;;;;;;19.77;15.77;;;14.20;74.20;;;;;;5018844;28;20054;-65
2023/04/06 12:20:55;;;;;;;19.92;15.52;;;14.20;74.10;;;;;;5014759;28;20424;-64
2023/04/06 12:23:21;;;;;;;18.73;16.50;;;14.30;72.40;;;;;;5014303;28;20041;-65
2023/04/06 12:25:47;;;;;;;18.48;15.60;;;14.60;76.10;;;;;;5015057;28;20044;-64
2023/04/06 12:28:13;;;;;;;21.15;16.48;;;14.80;76.50;;;;;;5033651;28;20045;-65
2023/04/06 12:30:40;;;;;;;19.00;15.93;;;15.00;73.90;;;;;;5018487;28;20073;-64
2023/04/06 12:33:06;;;;;;;19.73;15.52;;;15.10;71.70;;;;;;5010226;28;20044;-64
2023/04/06 12:35:36;;;;;;;16.95;12.40;;;15.30;75.90;;;;;;5004440;28;20501;-66
2023/04/06 12:38:02;;;;;;;19.88;17.45;;;15.60;75.80;;;;;;5016511;28;20034;-65
2023/04/06 12:40:28;;;;;;;19.98;17.23;;;15.50;69.70;;;;;;5013908;28;20072;-66